createdAt,value
2018-05-26T00:01:01.060Z,0.00
2018-05-26T00:02:01.114Z,0.00
2018-05-26T00:03:54.120Z,0.00
2018-05-26T00:04:54.179Z,0.00
2018-05-26T00:06:47.171Z,0.00
2018-05-26T00:07:47.238Z,0.00
2018-05-26T00:09:40.242Z,0.00
2018-05-26T00:10:40.301Z,0.00
2018-05-26T00:12:33.305Z,0.00
2018-05-26T00:13:33.359Z,0.00
2018-05-26T00:15:26.366Z,0.00
2018-05-26T00:16:26.417Z,0.00
2018-05-26T00:18:19.413Z,0.00
2018-05-26T00:19:19.477Z,0.00
2018-05-26T00:21:12.484Z,0.00
2018-05-26T00:22:12.540Z,0.00
2018-05-26T00:24:05.542Z,0.00
2018-05-26T00:25:05.600Z,0.00
2018-05-26T00:26:58.596Z,0.00
2018-05-26T00:27:58.661Z,0.00
2018-05-26T00:29:51.662Z,0.00
2018-05-26T00:30:51.720Z,0.00
2018-05-26T00:32:44.716Z,0.00
2018-05-26T00:33:44.780Z,0.00
2018-05-26T00:35:37.782Z,0.00
2018-05-26T00:36:37.840Z,0.00
2018-05-26T00:38:30.834Z,0.00
2018-05-26T00:39:30.900Z,0.00
2018-05-26T00:41:23.901Z,0.00
2018-05-26T00:42:23.958Z,0.00
2018-05-26T00:44:16.961Z,0.00
2018-05-26T00:45:17.021Z,0.00
2018-05-26T00:47:10.022Z,0.00
2018-05-26T00:48:10.083Z,0.00
2018-05-26T00:50:03.085Z,0.00
2018-05-26T00:51:03.142Z,0.00
2018-05-26T00:52:56.152Z,0.00
2018-05-26T00:53:56.205Z,0.00
2018-05-26T00:55:49.207Z,0.00
2018-05-26T00:56:49.267Z,0.00
2018-05-26T00:58:42.261Z,0.00
2018-05-26T00:59:42.326Z,0.00
2018-05-26T01:01:35.327Z,0.00
2018-05-26T01:02:35.384Z,0.00
2018-05-26T01:04:28.387Z,0.00
2018-05-26T01:05:28.444Z,0.00
2018-05-26T01:07:21.444Z,0.00
2018-05-26T01:08:21.507Z,0.00
2018-05-26T01:10:14.510Z,0.00
2018-05-26T01:11:14.569Z,0.00
2018-05-26T01:13:07.564Z,0.00
2018-05-26T01:14:07.628Z,0.00
2018-05-26T01:16:00.630Z,0.00
2018-05-26T01:17:00.694Z,0.00
2018-05-26T01:18:53.717Z,0.00
2018-05-26T01:19:53.781Z,0.00
2018-05-26T01:21:46.781Z,0.00
2018-05-26T01:22:46.840Z,0.00
2018-05-26T01:24:39.840Z,0.00
2018-05-26T01:25:39.913Z,0.00
2018-05-26T01:27:32.893Z,0.00
2018-05-26T01:28:32.959Z,0.00
2018-05-26T01:30:25.959Z,0.00
2018-05-26T01:31:26.021Z,0.00
2018-05-26T01:33:19.010Z,0.00
2018-05-26T01:34:19.078Z,0.00
2018-05-26T01:36:12.077Z,0.00
2018-05-26T01:37:12.134Z,0.00
2018-05-26T01:39:05.127Z,0.00
2018-05-26T01:40:05.192Z,0.00
2018-05-26T01:41:58.193Z,0.00
2018-05-26T01:42:58.252Z,0.00
2018-05-26T01:44:51.255Z,0.00
2018-05-26T01:45:51.464Z,0.00
2018-05-26T01:47:44.302Z,0.00
2018-05-26T01:48:44.367Z,0.00
2018-05-26T01:50:37.366Z,0.00
2018-05-26T01:51:37.424Z,0.00
2018-05-26T01:53:30.418Z,0.00
2018-05-26T01:54:30.482Z,0.00
2018-05-26T01:56:23.483Z,0.00
2018-05-26T01:57:23.540Z,0.00
2018-05-26T01:59:16.536Z,0.00
2018-05-26T02:00:16.598Z,0.00
2018-05-26T02:02:09.598Z,0.00
2018-05-26T02:03:09.657Z,0.00
2018-05-26T02:05:02.656Z,0.00
2018-05-26T02:06:02.717Z,0.00
2018-05-26T02:07:55.711Z,0.00
2018-05-26T02:08:55.776Z,0.00
2018-05-26T02:10:48.775Z,0.00
2018-05-26T02:11:48.834Z,0.00
2018-05-26T02:13:41.825Z,0.00
2018-05-26T02:14:41.897Z,0.00
2018-05-26T02:16:35.401Z,0.00
2018-05-26T02:17:35.457Z,0.00
2018-05-26T02:19:28.451Z,0.00
2018-05-26T02:20:28.515Z,0.00
2018-05-26T02:22:21.515Z,0.00
2018-05-26T02:23:21.574Z,0.00
2018-05-26T02:25:14.573Z,0.00
2018-05-26T02:26:14.629Z,0.00
2018-05-26T02:28:07.622Z,0.00
2018-05-26T02:29:07.689Z,0.00
2018-05-26T02:31:00.698Z,0.00
2018-05-26T02:32:00.748Z,0.00
2018-05-26T02:33:53.735Z,0.00
2018-05-26T02:34:53.806Z,0.00
2018-05-26T02:36:46.803Z,0.00
2018-05-26T02:37:46.861Z,0.00
2018-05-26T02:39:39.861Z,0.00
2018-05-26T02:40:39.924Z,0.00
2018-05-26T02:42:32.925Z,4.00
2018-05-26T02:43:32.983Z,4.00
2018-05-26T02:45:25.983Z,4.00
2018-05-26T02:46:26.040Z,0.00
2018-05-26T02:48:19.043Z,4.00
2018-05-26T02:49:19.106Z,8.00
2018-05-26T02:51:12.108Z,8.00
2018-05-26T02:52:12.170Z,4.00
2018-05-26T02:54:05.160Z,8.00
2018-05-26T02:55:05.225Z,12.00
2018-05-26T02:56:58.224Z,12.00
2018-05-26T02:57:58.285Z,12.00
2018-05-26T02:59:51.277Z,16.00
2018-05-26T03:00:51.343Z,20.00
2018-05-26T03:02:44.342Z,24.00
2018-05-26T03:03:44.400Z,28.00
2018-05-26T03:05:37.406Z,32.00
2018-05-26T03:06:37.458Z,36.00
2018-05-26T03:08:30.451Z,44.00
2018-05-26T03:09:30.542Z,52.00
2018-05-26T03:11:23.514Z,64.00
2018-05-26T03:12:23.571Z,72.00
2018-05-26T03:14:16.567Z,88.00
2018-05-26T03:15:16.628Z,100.00
2018-05-26T03:17:10.139Z,116.00
2018-05-26T03:18:10.194Z,124.00
2018-05-26T03:20:03.197Z,148.00
2018-05-26T03:21:03.257Z,160.00
2018-05-26T03:22:56.257Z,184.00
2018-05-26T03:23:56.318Z,196.00
2018-05-26T03:25:49.322Z,228.00
2018-05-26T03:26:49.371Z,240.00
2018-05-26T03:28:42.366Z,272.00
2018-05-26T03:29:42.435Z,288.00
2018-05-26T03:31:35.428Z,324.00
2018-05-26T03:32:35.485Z,344.00
2018-05-26T03:34:28.478Z,388.00
2018-05-26T03:35:28.543Z,412.00
2018-05-26T03:37:21.541Z,460.00
2018-05-26T03:38:21.600Z,488.00
2018-05-26T03:40:14.600Z,540.00
2018-05-26T03:41:14.658Z,568.00
2018-05-26T03:43:07.659Z,628.00
2018-05-26T03:44:07.717Z,664.00
2018-05-26T03:46:00.714Z,728.00
2018-05-26T03:47:00.776Z,760.00
2018-05-26T03:48:53.764Z,836.00
2018-05-26T03:49:53.832Z,868.00
2018-05-26T03:51:46.828Z,940.00
2018-05-26T03:52:46.887Z,988.00
2018-05-26T03:54:39.880Z,1064.00
2018-05-26T03:55:39.944Z,1104.00
2018-05-26T03:57:33.445Z,1180.00
2018-05-26T03:58:33.502Z,1224.00
2018-05-26T04:00:26.494Z,1300.00
2018-05-26T04:01:26.558Z,1336.00
2018-05-26T04:03:19.567Z,1416.00
2018-05-26T04:04:19.615Z,1464.00
2018-05-26T04:06:12.617Z,1544.00
2018-05-26T04:07:12.674Z,1588.00
2018-05-26T04:09:05.669Z,1664.00
2018-05-26T04:10:05.732Z,1696.00
2018-05-26T04:11:58.732Z,1752.00
2018-05-26T04:12:58.788Z,1776.00
2018-05-26T04:14:51.789Z,1828.00
2018-05-26T04:15:51.848Z,1852.00
2018-05-26T04:17:44.847Z,1908.00
2018-05-26T04:18:44.906Z,1940.00
2018-05-26T04:20:37.913Z,2004.00
2018-05-26T04:21:37.965Z,2028.00
2018-05-26T04:23:30.968Z,2064.00
2018-05-26T04:24:31.025Z,2096.00
2018-05-26T04:26:24.030Z,2168.00
2018-05-26T04:27:24.089Z,2212.00
2018-05-26T04:29:17.082Z,2300.00
2018-05-26T04:30:17.148Z,2348.00
2018-05-26T04:32:10.146Z,2460.00
2018-05-26T04:33:10.206Z,2516.00
2018-05-26T04:35:03.206Z,2616.00
2018-05-26T04:36:03.271Z,2668.00
2018-05-26T04:37:56.270Z,2756.00
2018-05-26T04:38:56.326Z,2800.00
2018-05-26T04:40:49.318Z,2884.00
2018-05-26T04:41:49.386Z,2932.00
2018-05-26T04:43:42.381Z,3020.00
2018-05-26T04:44:42.440Z,3064.00
2018-05-26T04:46:35.440Z,3144.00
2018-05-26T04:47:35.496Z,3184.00
2018-05-26T04:49:28.490Z,3260.00
2018-05-26T04:50:28.555Z,3284.00
2018-05-26T04:52:21.554Z,3324.00
2018-05-26T04:53:21.621Z,3336.00
2018-05-26T04:55:14.613Z,3356.00
2018-05-26T04:56:14.676Z,3352.00
2018-05-26T04:58:07.677Z,3372.00
2018-05-26T04:59:07.736Z,3384.00
2018-05-26T05:01:00.730Z,3416.00
2018-05-26T05:02:00.794Z,3436.00
2018-05-26T05:03:53.812Z,3524.00
2018-05-26T05:04:53.863Z,3576.00
2018-05-26T05:06:46.861Z,3672.00
2018-05-26T05:07:46.920Z,3736.00
2018-05-26T05:09:39.914Z,3880.00
2018-05-26T05:10:39.979Z,3968.00
2018-05-26T05:12:32.985Z,4120.00
2018-05-26T05:13:33.043Z,4196.00
2018-05-26T05:15:26.036Z,4348.00
2018-05-26T05:16:26.103Z,4428.00
2018-05-26T05:18:19.101Z,4588.00
2018-05-26T05:19:19.161Z,4676.00
2018-05-26T05:21:12.153Z,4836.00
2018-05-26T05:22:12.217Z,4908.00
2018-05-26T05:24:05.221Z,5056.00
2018-05-26T05:25:05.279Z,5112.00
2018-05-26T05:26:58.280Z,5188.00
2018-05-26T05:27:58.341Z,5236.00
2018-05-26T05:29:51.329Z,5340.00
2018-05-26T05:30:51.397Z,5420.00
2018-05-26T05:32:44.395Z,5592.00
2018-05-26T05:33:44.454Z,5692.00
2018-05-26T05:35:37.447Z,5828.00
2018-05-26T05:36:37.513Z,5900.00
2018-05-26T05:38:30.513Z,5988.00
2018-05-26T05:39:30.574Z,6016.00
2018-05-26T05:41:23.568Z,6116.00
2018-05-26T05:42:23.635Z,6164.00
2018-05-26T05:44:16.650Z,6272.00
2018-05-26T05:45:16.713Z,6380.00
2018-05-26T05:47:09.711Z,6532.00
2018-05-26T05:48:09.768Z,6608.00
2018-05-26T05:50:02.832Z,6704.00
2018-05-26T05:51:02.831Z,6752.00
2018-05-26T05:52:55.832Z,6948.00
2018-05-26T05:53:55.899Z,7132.00
2018-05-26T05:55:48.888Z,7728.00
2018-05-26T05:56:48.955Z,8008.00
2018-05-26T05:58:41.959Z,8548.00
2018-05-26T05:59:42.017Z,8692.00
2018-05-26T06:01:35.014Z,8436.00
2018-05-26T06:02:35.081Z,8288.00
2018-05-26T06:04:28.082Z,8496.00
2018-05-26T06:05:28.143Z,8624.00
2018-05-26T06:07:21.149Z,9108.00
2018-05-26T06:08:21.227Z,9544.00
2018-05-26T06:10:14.202Z,10316.00
2018-05-26T06:11:14.269Z,10708.00
2018-05-26T06:13:07.273Z,11392.00
2018-05-26T06:14:07.361Z,12384.00
2018-05-26T06:16:00.334Z,14848.00
2018-05-26T06:17:00.394Z,15888.00
2018-05-26T06:18:53.396Z,17024.00
2018-05-26T06:19:53.457Z,17312.00
2018-05-26T06:21:46.454Z,17696.00
2018-05-26T06:22:46.521Z,17664.00
2018-05-26T06:24:39.526Z,17536.00
2018-05-26T06:25:39.588Z,17568.00
2018-05-26T06:27:32.831Z,18272.00
2018-05-26T06:28:32.657Z,17568.00
2018-05-26T06:30:25.660Z,19904.00
2018-05-26T06:31:25.757Z,20768.00
2018-05-26T06:33:18.741Z,22624.00
2018-05-26T06:34:18.809Z,24128.00
2018-05-26T06:36:11.821Z,27328.00
2018-05-26T06:37:11.895Z,28256.00
2018-05-26T06:39:04.903Z,31392.00
2018-05-26T06:40:04.970Z,32256.00
2018-05-26T06:41:57.980Z,34016.00
2018-05-26T06:42:58.049Z,38688.00
2018-05-26T06:44:51.066Z,43552.00
2018-05-26T06:45:51.131Z,43744.00
2018-05-26T06:47:44.149Z,53184.00
2018-05-26T06:48:44.216Z,59072.00
2018-05-26T06:50:37.225Z,66624.00
2018-05-26T06:51:37.299Z,71776.00
2018-05-26T06:53:30.322Z,75168.00
2018-05-26T06:54:30.390Z,71808.00
2018-05-26T06:56:23.404Z,71168.00
2018-05-26T06:57:23.480Z,66976.00
2018-05-26T06:59:16.504Z,57440.00
2018-05-26T07:00:16.579Z,52768.00
2018-05-26T07:02:09.588Z,49280.00
2018-05-26T07:03:09.667Z,44352.00
2018-05-26T07:05:02.711Z,40672.00
2018-05-26T07:06:02.765Z,41440.00
2018-05-26T07:07:55.784Z,40032.00
2018-05-26T07:08:55.855Z,38944.00
2018-05-26T07:10:48.874Z,41280.00
2018-05-26T07:11:48.946Z,41728.00
2018-05-26T07:13:41.968Z,41920.00
2018-05-26T07:14:42.039Z,43488.00
2018-05-26T07:16:35.063Z,46368.00
2018-05-26T07:17:35.142Z,47616.00
2018-05-26T07:19:28.167Z,48800.00
2018-05-26T07:20:28.238Z,49696.00
2018-05-26T07:22:21.264Z,49504.00
2018-05-26T07:23:21.336Z,49248.00
2018-05-26T07:25:14.362Z,49280.00
2018-05-26T07:26:14.431Z,49760.00
2018-05-26T07:28:07.457Z,49664.00
2018-05-26T07:29:07.561Z,51168.00
2018-05-26T07:31:00.560Z,54016.00
2018-05-26T07:32:00.632Z,54816.00
2018-05-26T07:33:53.682Z,56032.00
2018-05-26T07:34:53.733Z,53792.00
2018-05-26T07:36:46.756Z,54304.00
2018-05-26T07:37:46.836Z,53312.00
2018-05-26T07:39:39.868Z,48672.00
2018-05-26T07:40:39.938Z,48160.00
2018-05-26T07:42:32.973Z,45856.00
2018-05-26T07:43:33.038Z,45504.00
2018-05-26T07:45:26.065Z,45632.00
2018-05-26T07:46:26.138Z,44192.00
2018-05-26T07:48:19.180Z,45664.00
2018-05-26T07:49:19.239Z,45312.00
2018-05-26T07:51:12.260Z,45952.00
2018-05-26T07:52:12.338Z,45920.00
2018-05-26T07:54:05.370Z,47552.00
2018-05-26T07:55:05.447Z,47104.00
2018-05-26T07:56:58.470Z,47840.00
2018-05-26T07:57:58.555Z,47584.00
2018-05-26T07:59:51.579Z,48128.00
2018-05-26T08:00:51.652Z,47936.00
2018-05-26T08:02:44.680Z,44640.00
2018-05-26T08:03:44.762Z,45824.00
2018-05-26T08:05:37.789Z,47456.00
2018-05-26T08:06:37.869Z,46528.00
2018-05-26T08:08:30.896Z,45408.00
2018-05-26T08:09:30.973Z,45120.00
2018-05-26T08:11:23.997Z,42848.00
2018-05-26T08:12:24.079Z,45760.00
2018-05-26T08:14:17.111Z,82592.00
2018-05-26T08:15:17.185Z,106624.00
2018-05-26T08:17:10.229Z,92224.00
2018-05-26T08:18:10.293Z,88672.00
2018-05-26T08:20:03.326Z,79264.00
2018-05-26T08:21:03.401Z,84288.00
2018-05-26T08:22:56.430Z,80608.00
2018-05-26T08:23:56.510Z,80640.00
2018-05-26T08:25:49.543Z,80704.00
2018-05-26T08:26:49.619Z,81536.00
2018-05-26T08:28:42.652Z,81504.00
2018-05-26T08:29:42.730Z,80384.00
2018-05-26T08:31:35.757Z,85504.00
2018-05-26T08:32:35.837Z,83840.00
2018-05-26T08:34:28.872Z,85152.00
2018-05-26T08:35:28.949Z,86240.00
2018-05-26T08:37:21.973Z,84224.00
2018-05-26T08:38:22.060Z,87776.00
2018-05-26T08:40:15.091Z,85440.00
2018-05-26T08:41:15.210Z,84352.00
2018-05-26T08:43:08.200Z,87040.00
2018-05-26T08:44:08.286Z,88640.00
2018-05-26T08:46:01.319Z,86816.00
2018-05-26T08:47:01.399Z,86048.00
2018-05-26T08:48:54.463Z,87136.00
2018-05-26T08:49:54.503Z,90016.00
2018-05-26T08:51:47.536Z,90144.00
2018-05-26T08:52:47.617Z,83872.00
2018-05-26T08:54:40.651Z,73472.00
2018-05-26T08:55:40.729Z,78528.00
2018-05-26T08:57:33.760Z,72992.00
2018-05-26T08:58:33.842Z,72608.00
2018-05-26T09:00:26.883Z,80704.00
2018-05-26T09:01:26.958Z,80032.00
2018-05-26T09:03:19.992Z,82272.00
2018-05-26T09:04:20.074Z,68288.00
2018-05-26T09:06:13.106Z,78240.00
2018-05-26T09:07:13.183Z,80064.00
2018-05-26T09:09:06.222Z,80544.00
2018-05-26T09:10:06.297Z,77984.00
2018-05-26T09:11:59.326Z,78048.00
2018-05-26T09:12:59.405Z,75616.00
2018-05-26T09:14:52.447Z,75232.00
2018-05-26T09:15:52.513Z,76640.00
2018-05-26T09:17:45.542Z,73280.00
2018-05-26T09:18:45.712Z,73248.00
2018-05-26T09:20:38.656Z,73408.00
2018-05-26T09:21:38.732Z,75776.00
2018-05-26T09:23:31.761Z,75296.00
2018-05-26T09:24:31.845Z,75744.00
2018-05-26T09:26:24.882Z,73952.00
2018-05-26T09:27:24.954Z,51360.00
2018-05-26T09:29:18.016Z,11200.00
2018-05-26T09:30:18.126Z,9908.00
2018-05-26T09:32:11.596Z,9500.00
2018-05-26T09:33:11.674Z,9416.00
2018-05-26T09:35:04.706Z,9260.00
2018-05-26T09:36:04.777Z,9208.00
2018-05-26T09:37:57.798Z,9020.00
2018-05-26T09:38:57.876Z,8800.00
2018-05-26T09:40:50.900Z,8652.00
2018-05-26T09:41:50.971Z,8564.00
2018-05-26T09:43:44.033Z,8556.00
2018-05-26T09:44:44.074Z,8668.00
2018-05-26T09:46:37.088Z,8648.00
2018-05-26T09:47:37.157Z,8564.00
2018-05-26T09:49:30.181Z,8452.00
2018-05-26T09:50:30.249Z,8384.00
2018-05-26T09:52:23.289Z,8320.00
2018-05-26T09:53:23.343Z,8392.00
2018-05-26T09:55:16.418Z,8412.00
2018-05-26T09:56:16.433Z,8284.00
2018-05-26T09:58:09.447Z,8120.00
2018-05-26T09:59:09.519Z,8112.00
2018-05-26T10:01:02.539Z,8244.00
2018-05-26T10:02:02.606Z,8368.00
2018-05-26T10:03:55.618Z,8872.00
2018-05-26T10:04:55.692Z,9456.00
2018-05-26T10:06:48.718Z,9284.00
2018-05-26T10:07:48.778Z,9148.00
2018-05-26T10:09:41.799Z,9788.00
2018-05-26T10:10:41.868Z,10900.00
2018-05-26T10:12:34.881Z,10516.00
2018-05-26T10:13:34.983Z,9468.00
2018-05-26T10:15:27.972Z,8944.00
2018-05-26T10:16:28.039Z,9328.00
2018-05-26T10:18:21.050Z,9388.00
2018-05-26T10:19:21.125Z,8904.00
2018-05-26T10:21:14.139Z,8380.00
2018-05-26T10:22:14.207Z,8084.00
2018-05-26T10:24:07.230Z,7468.00
2018-05-26T10:25:07.291Z,7320.00
2018-05-26T10:27:00.308Z,7304.00
2018-05-26T10:28:00.381Z,7384.00
2018-05-26T10:29:53.400Z,7348.00
2018-05-26T10:30:53.461Z,7592.00
2018-05-26T10:32:46.994Z,8052.00
2018-05-26T10:33:47.051Z,8156.00
2018-05-26T10:35:40.088Z,8760.00
2018-05-26T10:36:40.136Z,8000.00
2018-05-26T10:38:33.150Z,7164.00
2018-05-26T10:39:33.229Z,7112.00
2018-05-26T10:41:26.258Z,7440.00
2018-05-26T10:42:26.323Z,7756.00
2018-05-26T10:44:19.333Z,7868.00
2018-05-26T10:45:19.406Z,7616.00
2018-05-26T10:47:12.426Z,7128.00
2018-05-26T10:48:12.488Z,6980.00
2018-05-26T10:50:05.561Z,6684.00
2018-05-26T10:51:05.569Z,6444.00
2018-05-26T10:52:58.581Z,6100.00
2018-05-26T10:53:58.649Z,6008.00
2018-05-26T10:55:51.673Z,5800.00
2018-05-26T10:56:51.732Z,5696.00
2018-05-26T10:58:44.741Z,5524.00
2018-05-26T10:59:44.812Z,5544.00
2018-05-26T11:01:37.853Z,5592.00
2018-05-26T11:02:37.897Z,5656.00
2018-05-26T11:04:30.939Z,5688.00
2018-05-26T11:05:30.991Z,5684.00
2018-05-26T11:07:24.007Z,5716.00
2018-05-26T11:08:24.073Z,5708.00
2018-05-26T11:10:17.093Z,5712.00
2018-05-26T11:11:17.164Z,5688.00
2018-05-26T11:13:10.171Z,5540.00
2018-05-26T11:14:10.243Z,5464.00
2018-05-26T11:16:03.261Z,5352.00
2018-05-26T11:17:03.342Z,5312.00
2018-05-26T11:18:56.353Z,5228.00
2018-05-26T11:19:56.407Z,5184.00
2018-05-26T11:21:49.424Z,5112.00
2018-05-26T11:22:49.493Z,5052.00
2018-05-26T11:24:42.582Z,4992.00
2018-05-26T11:25:42.587Z,4968.00
2018-05-26T11:27:35.587Z,4964.00
2018-05-26T11:28:35.659Z,4916.00
2018-05-26T11:30:28.739Z,4892.00
2018-05-26T11:31:28.734Z,4912.00
2018-05-26T11:33:21.742Z,4852.00
2018-05-26T11:34:21.814Z,4876.00
2018-05-26T11:36:14.828Z,4876.00
2018-05-26T11:37:14.893Z,4884.00
2018-05-26T11:39:07.901Z,4860.00
2018-05-26T11:40:07.974Z,4876.00
2018-05-26T11:42:00.986Z,4904.00
2018-05-26T11:43:01.045Z,4924.00
2018-05-26T11:44:54.055Z,4972.00
2018-05-26T11:45:54.128Z,4980.00
2018-05-26T11:47:47.650Z,4976.00
2018-05-26T11:50:00.674Z,4936.00
2018-05-26T11:51:00.744Z,4912.00
2018-05-26T11:52:53.761Z,4820.00
2018-05-26T11:53:53.822Z,4764.00
2018-05-26T11:55:46.841Z,4664.00
2018-05-26T11:56:46.911Z,4636.00
2018-05-26T11:58:39.913Z,4580.00
2018-05-26T11:59:39.988Z,4644.00
2018-05-26T12:01:33.000Z,4824.00
2018-05-26T12:02:33.062Z,4928.00
2018-05-26T12:04:26.071Z,5000.00
2018-05-26T12:05:26.140Z,4992.00
2018-05-26T12:07:19.153Z,5036.00
2018-05-26T12:08:19.219Z,5068.00
2018-05-26T12:10:12.227Z,5140.00
2018-05-26T12:11:12.340Z,5264.00
2018-05-26T12:13:05.316Z,5312.00
2018-05-26T12:14:05.373Z,5164.00
2018-05-26T12:15:58.389Z,4992.00
2018-05-26T12:16:58.455Z,4892.00
2018-05-26T12:18:51.464Z,4696.00
2018-05-26T12:19:51.539Z,4596.00
2018-05-26T12:21:44.552Z,4448.00
2018-05-26T12:22:44.613Z,4416.00
2018-05-26T12:24:37.627Z,4364.00
2018-05-26T12:25:37.695Z,4352.00
2018-05-26T12:27:30.720Z,4296.00
2018-05-26T12:28:30.784Z,4260.00
2018-05-26T12:30:23.786Z,4092.00
2018-05-26T12:31:23.858Z,4060.00
2018-05-26T12:33:16.871Z,4144.00
2018-05-26T12:34:16.937Z,4184.00
2018-05-26T12:36:09.962Z,4240.00
2018-05-26T12:37:10.020Z,4256.00
2018-05-26T12:39:03.030Z,4256.00
2018-05-26T12:40:03.111Z,4272.00
2018-05-26T12:41:56.116Z,4252.00
2018-05-26T12:42:56.181Z,4248.00
2018-05-26T12:44:49.187Z,4344.00
2018-05-26T12:45:49.259Z,4392.00
2018-05-26T12:47:42.798Z,4348.00
2018-05-26T12:48:42.848Z,4356.00
2018-05-26T12:50:35.856Z,4348.00
2018-05-26T12:51:35.924Z,4288.00
2018-05-26T12:53:28.942Z,4168.00
2018-05-26T12:54:29.009Z,4084.00
2018-05-26T12:56:22.021Z,3916.00
2018-05-26T12:57:22.085Z,3840.00
2018-05-26T12:59:15.094Z,3884.00
2018-05-26T13:00:15.164Z,3932.00
2018-05-26T13:02:08.179Z,3948.00
2018-05-26T13:03:08.245Z,3872.00
2018-05-26T13:05:01.255Z,3876.00
2018-05-26T13:06:01.330Z,3912.00
2018-05-26T13:07:54.357Z,3960.00
2018-05-26T13:08:54.420Z,3956.00
2018-05-26T13:10:47.426Z,3936.00
2018-05-26T13:11:47.496Z,3920.00
2018-05-26T13:13:40.510Z,3872.00
2018-05-26T13:14:40.576Z,3856.00
2018-05-26T13:16:33.597Z,3808.00
2018-05-26T13:17:33.663Z,3804.00
2018-05-26T13:19:26.672Z,3756.00
2018-05-26T13:20:26.741Z,3736.00
2018-05-26T13:22:19.756Z,3724.00
2018-05-26T13:23:19.821Z,3736.00
2018-05-26T13:25:12.829Z,3780.00
2018-05-26T13:26:12.901Z,3780.00
2018-05-26T13:28:05.917Z,3808.00
2018-05-26T13:29:05.981Z,3812.00
2018-05-26T13:30:58.986Z,3988.00
2018-05-26T13:31:59.057Z,4176.00
2018-05-26T13:33:52.074Z,4380.00
2018-05-26T13:34:52.140Z,4532.00
2018-05-26T13:36:45.151Z,4984.00
2018-05-26T13:37:45.237Z,4992.00
2018-05-26T13:39:38.224Z,5528.00
2018-05-26T13:40:38.296Z,5916.00
2018-05-26T13:42:31.317Z,6292.00
2018-05-26T13:43:31.380Z,6364.00
2018-05-26T13:45:24.390Z,6428.00
2018-05-26T13:46:24.460Z,6408.00
2018-05-26T13:48:17.983Z,6948.00
2018-05-26T13:49:18.088Z,7604.00
2018-05-26T13:51:11.156Z,7844.00
2018-05-26T13:52:11.131Z,7088.00
2018-05-26T13:54:04.138Z,5932.00
2018-05-26T13:55:04.201Z,5648.00
2018-05-26T13:56:57.211Z,5636.00
2018-05-26T13:57:57.280Z,5888.00
2018-05-26T13:59:50.293Z,5756.00
2018-05-26T14:00:50.357Z,5040.00
2018-05-26T14:02:43.370Z,4584.00
2018-05-26T14:03:43.439Z,4644.00
2018-05-26T14:05:36.445Z,4956.00
2018-05-26T14:06:36.517Z,4648.00
2018-05-26T14:08:29.559Z,4016.00
2018-05-26T14:09:29.619Z,3900.00
2018-05-26T14:11:22.631Z,3928.00
2018-05-26T14:12:22.701Z,3976.00
2018-05-26T14:14:15.713Z,4020.00
2018-05-26T14:15:15.780Z,3980.00
2018-05-26T14:17:08.793Z,3888.00
2018-05-26T14:18:08.871Z,3928.00
2018-05-26T14:20:01.877Z,4044.00
2018-05-26T14:21:01.945Z,4100.00
2018-05-26T14:22:54.966Z,4100.00
2018-05-26T14:23:55.018Z,4120.00
2018-05-26T14:25:48.031Z,4292.00
2018-05-26T14:26:48.102Z,4532.00
2018-05-26T14:28:41.113Z,4876.00
2018-05-26T14:29:41.179Z,4988.00
2018-05-26T14:31:34.187Z,5032.00
2018-05-26T14:32:34.262Z,5084.00
2018-05-26T14:34:27.287Z,4260.00
2018-05-26T14:35:27.368Z,3864.00
2018-05-26T14:37:20.360Z,3688.00
2018-05-26T14:38:20.428Z,3756.00
2018-05-26T14:40:13.445Z,3580.00
2018-05-26T14:41:13.508Z,3556.00
2018-05-26T14:43:06.525Z,3556.00
2018-05-26T14:44:06.591Z,3520.00
2018-05-26T14:45:59.609Z,3476.00
2018-05-26T14:46:59.672Z,3476.00
2018-05-26T14:48:53.193Z,3452.00
2018-05-26T14:49:53.318Z,3432.00
2018-05-26T14:51:46.267Z,3396.00
2018-05-26T14:52:46.336Z,3364.00
2018-05-26T14:54:39.354Z,3392.00
2018-05-26T14:55:39.418Z,3436.00
2018-05-26T14:57:32.423Z,3500.00
2018-05-26T14:58:32.496Z,3572.00
2018-05-26T15:00:25.510Z,3616.00
2018-05-26T15:01:25.576Z,3648.00
2018-05-26T15:03:18.587Z,3820.00
2018-05-26T15:04:18.655Z,4012.00
2018-05-26T15:06:11.673Z,4412.00
2018-05-26T15:07:11.732Z,4604.00
2018-05-26T15:09:04.746Z,4920.00
2018-05-26T15:10:04.830Z,5072.00
2018-05-26T15:11:57.827Z,4840.00
2018-05-26T15:12:57.971Z,4540.00
2018-05-26T15:14:50.921Z,4428.00
2018-05-26T15:15:50.990Z,4608.00
2018-05-26T15:17:44.087Z,4576.00
2018-05-26T15:18:44.150Z,4344.00
2018-05-26T15:20:37.074Z,3804.00
2018-05-26T15:21:37.142Z,3560.00
2018-05-26T15:23:30.150Z,3356.00
2018-05-26T15:24:30.208Z,3364.00
2018-05-26T15:26:23.224Z,3388.00
2018-05-26T15:27:23.295Z,3404.00
2018-05-26T15:29:16.311Z,3388.00
2018-05-26T15:30:16.370Z,3344.00
2018-05-26T15:32:09.389Z,3272.00
2018-05-26T15:33:09.455Z,3248.00
2018-05-26T15:35:02.488Z,3220.00
2018-05-26T15:36:02.557Z,3184.00
2018-05-26T15:37:55.558Z,3156.00
2018-05-26T15:38:55.624Z,3132.00
2018-05-26T15:40:48.640Z,3116.00
2018-05-26T15:41:48.701Z,3108.00
2018-05-26T15:43:41.717Z,3084.00
2018-05-26T15:44:41.784Z,3036.00
2018-05-26T15:46:34.802Z,3016.00
2018-05-26T15:47:34.867Z,3004.00
2018-05-26T15:49:27.885Z,2988.00
2018-05-26T15:50:27.964Z,2996.00
2018-05-26T15:52:20.961Z,2996.00
2018-05-26T15:53:21.075Z,2984.00
2018-05-26T15:55:14.043Z,2960.00
2018-05-26T15:56:14.112Z,2936.00
2018-05-26T15:58:07.131Z,2912.00
2018-05-26T15:59:07.184Z,2896.00
2018-05-26T16:01:00.193Z,2912.00
2018-05-26T16:02:00.270Z,2928.00
2018-05-26T16:03:53.281Z,2960.00
2018-05-26T16:04:53.346Z,2968.00
2018-05-26T16:06:46.362Z,2956.00
2018-05-26T16:07:46.428Z,2944.00
2018-05-26T16:09:39.474Z,2912.00
2018-05-26T16:10:39.572Z,2892.00
2018-05-26T16:12:32.504Z,2860.00
2018-05-26T16:13:32.574Z,2840.00
2018-05-26T16:15:25.622Z,2828.00
2018-05-26T16:16:25.696Z,2820.00
2018-05-26T16:18:18.698Z,2800.00
2018-05-26T16:19:18.778Z,2796.00
2018-05-26T16:21:11.787Z,2820.00
2018-05-26T16:22:11.853Z,2828.00
2018-05-26T16:24:04.864Z,2812.00
2018-05-26T16:25:04.927Z,2784.00
2018-05-26T16:26:57.936Z,2824.00
2018-05-26T16:27:58.006Z,2868.00
2018-05-26T16:29:51.029Z,2872.00
2018-05-26T16:30:51.084Z,2856.00
2018-05-26T16:32:44.099Z,2840.00
2018-05-26T16:33:44.170Z,2840.00
2018-05-26T16:35:37.186Z,2848.00
2018-05-26T16:36:37.247Z,2864.00
2018-05-26T16:38:30.254Z,2888.00
2018-05-26T16:39:30.326Z,2904.00
2018-05-26T16:41:23.349Z,3048.00
2018-05-26T16:42:23.408Z,3144.00
2018-05-26T16:44:16.426Z,3408.00
2018-05-26T16:45:16.493Z,3600.00
2018-05-26T16:47:09.492Z,3796.00
2018-05-26T16:48:09.567Z,3704.00
2018-05-26T16:50:02.592Z,3544.00
2018-05-26T16:51:02.668Z,3520.00
2018-05-26T16:52:55.660Z,3776.00
2018-05-26T16:53:55.764Z,4072.00
2018-05-26T16:55:48.755Z,4604.00
2018-05-26T16:56:48.821Z,4744.00
2018-05-26T16:58:41.835Z,4692.00
2018-05-26T16:59:41.897Z,4476.00
2018-05-26T17:01:34.914Z,3736.00
2018-05-26T17:02:34.978Z,3416.00
2018-05-26T17:04:27.999Z,2924.00
2018-05-26T17:05:28.061Z,2740.00
2018-05-26T17:07:21.103Z,2568.00
2018-05-26T17:08:21.152Z,2560.00
2018-05-26T17:10:14.160Z,2572.00
2018-05-26T17:11:14.222Z,2576.00
2018-05-26T17:13:07.266Z,2520.00
2018-05-26T17:14:07.315Z,2492.00
2018-05-26T17:16:00.329Z,2456.00
2018-05-26T17:17:00.396Z,2436.00
2018-05-26T17:18:53.402Z,2420.00
2018-05-26T17:19:53.470Z,2420.00
2018-05-26T17:21:46.491Z,2404.00
2018-05-26T17:22:46.552Z,2388.00
2018-05-26T17:24:39.579Z,2372.00
2018-05-26T17:25:39.640Z,2360.00
2018-05-26T17:27:32.650Z,2332.00
2018-05-26T17:28:32.719Z,2320.00
2018-05-26T17:30:25.730Z,2300.00
2018-05-26T17:31:25.799Z,2284.00
2018-05-26T17:33:18.800Z,2256.00
2018-05-26T17:34:18.869Z,2248.00
2018-05-26T17:36:11.881Z,2224.00
2018-05-26T17:37:11.946Z,2212.00
2018-05-26T17:39:04.953Z,2188.00
2018-05-26T17:40:05.020Z,2176.00